sensor_id;sensor_type;location;lat;lon;timestamp;pressure;altitude;pressure_sealevel;temperature;humidity
16544;BME280;8384;47.996;7.786;2023-06-26T00:00:43;98755.56;;;21.89;45.44
16544;BME280;8384;47.996;7.786;2023-06-26T00:03:08;98750.53;;;21.82;45.04
16544;BME280;8384;47.996;7.786;2023-06-26T00:05:33;98757.09;;;21.78;44.94
16544;BME280;8384;47.996;7.786;2023-06-26T00:07:59;98749.81;;;21.64;45.28
16544;BME280;8384;47.996;7.786;2023-06-26T00:10:28;98754.44;;;21.51;45.84
16544;BME280;8384;47.996;7.786;2023-06-26T00:12:54;98768.00;;;21.53;46.44
16544;BME280;8384;47.996;7.786;2023-06-26T00:15:19;98776.38;;;21.44;46.17
16544;BME280;8384;47.996;7.786;2023-06-26T00:17:46;98762.97;;;21.46;46.11
16544;BME280;8384;47.996;7.786;2023-06-26T00:20:11;98776.25;;;21.40;46.54
16544;BME280;8384;47.996;7.786;2023-06-26T00:22:37;98753.59;;;21.12;47.35
16544;BME280;8384;47.996;7.786;2023-06-26T00:25:06;98772.69;;;21.22;47.37
16544;BME280;8384;47.996;7.786;2023-06-26T00:27:31;98768.91;;;21.27;47.17
16544;BME280;8384;47.996;7.786;2023-06-26T00:29:56;98763.72;;;21.17;47.36
16544;BME280;8384;47.996;7.786;2023-06-26T00:32:22;98764.72;;;21.12;47.92
16544;BME280;8384;47.996;7.786;2023-06-26T00:34:47;98766.78;;;21.24;47.22
16544;BME280;8384;47.996;7.786;2023-06-26T00:37:12;98768.28;;;21.21;47.07
16544;BME280;8384;47.996;7.786;2023-06-26T00:39:37;98770.13;;;21.08;47.53
16544;BME280;8384;47.996;7.786;2023-06-26T00:42:03;98777.63;;;21.08;47.33
16544;BME280;8384;47.996;7.786;2023-06-26T00:44:28;98776.94;;;21.20;47.32
16544;BME280;8384;47.996;7.786;2023-06-26T00:46:53;98774.66;;;21.22;47.49
16544;BME280;8384;47.996;7.786;2023-06-26T00:49:19;98773.88;;;21.12;47.61
16544;BME280;8384;47.996;7.786;2023-06-26T00:51:44;98779.81;;;20.93;48.02
16544;BME280;8384;47.996;7.786;2023-06-26T00:54:10;98758.91;;;20.78;48.15
16544;BME280;8384;47.996;7.786;2023-06-26T00:56:36;98782.75;;;20.71;49.06
16544;BME280;8384;47.996;7.786;2023-06-26T00:59:02;98772.63;;;20.57;49.70
16544;BME280;8384;47.996;7.786;2023-06-26T01:01:28;98772.31;;;20.50;50.11
16544;BME280;8384;47.996;7.786;2023-06-26T01:03:53;98761.03;;;20.37;50.30
16544;BME280;8384;47.996;7.786;2023-06-26T01:06:21;98780.81;;;20.36;51.00
16544;BME280;8384;47.996;7.786;2023-06-26T01:08:47;98772.97;;;20.38;50.69
16544;BME280;8384;47.996;7.786;2023-06-26T01:11:13;98768.06;;;20.44;50.85
16544;BME280;8384;47.996;7.786;2023-06-26T01:13:40;98772.63;;;20.40;51.55
16544;BME280;8384;47.996;7.786;2023-06-26T01:16:06;98764.16;;;20.36;51.47
16544;BME280;8384;47.996;7.786;2023-06-26T01:18:32;98772.13;;;20.37;51.29
16544;BME280;8384;47.996;7.786;2023-06-26T01:20:58;98764.44;;;20.43;51.01
16544;BME280;8384;47.996;7.786;2023-06-26T01:23:57;98760.69;;;20.13;52.64
16544;BME280;8384;47.996;7.786;2023-06-26T01:26:26;98748.38;;;19.87;53.73
16544;BME280;8384;47.996;7.786;2023-06-26T01:28:53;98729.13;;;19.82;53.91
16544;BME280;8384;47.996;7.786;2023-06-26T01:31:19;98758.06;;;20.07;53.39
16544;BME280;8384;47.996;7.786;2023-06-26T01:33:45;98747.16;;;20.11;52.66
16544;BME280;8384;47.996;7.786;2023-06-26T01:36:11;98754.97;;;20.09;52.90
16544;BME280;8384;47.996;7.786;2023-06-26T01:38:36;98750.72;;;20.12;52.62
16544;BME280;8384;47.996;7.786;2023-06-26T01:41:03;98716.09;;;20.00;52.71
16544;BME280;8384;47.996;7.786;2023-06-26T01:44:23;98743.41;;;20.16;52.39
16544;BME280;8384;47.996;7.786;2023-06-26T01:46:27;98734.25;;;20.24;52.17
16544;BME280;8384;47.996;7.786;2023-06-26T01:49:03;98743.53;;;20.19;51.92
16544;BME280;8384;47.996;7.786;2023-06-26T01:51:39;98731.16;;;19.99;52.38
16544;BME280;8384;47.996;7.786;2023-06-26T01:54:10;98747.63;;;20.04;52.78
16544;BME280;8384;47.996;7.786;2023-06-26T01:56:38;98742.56;;;20.06;52.56
16544;BME280;8384;47.996;7.786;2023-06-26T01:59:04;98741.75;;;20.06;52.42
16544;BME280;8384;47.996;7.786;2023-06-26T02:01:31;98724.22;;;19.79;53.21
16544;BME280;8384;47.996;7.786;2023-06-26T02:03:58;98748.75;;;19.95;52.95
16544;BME280;8384;47.996;7.786;2023-06-26T02:06:23;98745.47;;;19.92;53.32
16544;BME280;8384;47.996;7.786;2023-06-26T02:08:48;98737.78;;;19.89;53.42
16544;BME280;8384;47.996;7.786;2023-06-26T02:11:14;98741.56;;;19.93;53.46
16544;BME280;8384;47.996;7.786;2023-06-26T02:13:39;98704.97;;;19.83;53.12
16544;BME280;8384;47.996;7.786;2023-06-26T02:16:04;98724.28;;;19.88;53.10
16544;BME280;8384;47.996;7.786;2023-06-26T02:18:30;98751.06;;;20.10;53.00
16544;BME280;8384;47.996;7.786;2023-06-26T02:20:55;98755.44;;;20.02;53.06
16544;BME280;8384;47.996;7.786;2023-06-26T02:23:20;98752.31;;;19.86;53.50
16544;BME280;8384;47.996;7.786;2023-06-26T02:25:45;98726.31;;;19.73;53.90
16544;BME280;8384;47.996;7.786;2023-06-26T02:28:11;98740.75;;;19.93;53.70
16544;BME280;8384;47.996;7.786;2023-06-26T02:30:36;98750.22;;;20.01;53.42
16544;BME280;8384;47.996;7.786;2023-06-26T02:33:01;98726.03;;;19.84;53.77
16544;BME280;8384;47.996;7.786;2023-06-26T02:35:26;98745.81;;;20.00;53.74
16544;BME280;8384;47.996;7.786;2023-06-26T02:37:52;98746.47;;;19.97;53.63
16544;BME280;8384;47.996;7.786;2023-06-26T02:40:17;98738.63;;;19.90;53.95
16544;BME280;8384;47.996;7.786;2023-06-26T02:42:42;98743.34;;;19.89;54.10
16544;BME280;8384;47.996;7.786;2023-06-26T02:45:08;98741.03;;;19.83;54.21
16544;BME280;8384;47.996;7.786;2023-06-26T02:47:34;98747.84;;;19.76;54.42
16544;BME280;8384;47.996;7.786;2023-06-26T02:49:59;98749.50;;;19.77;54.58
16544;BME280;8384;47.996;7.786;2023-06-26T02:52:24;98742.94;;;19.73;54.80
16544;BME280;8384;47.996;7.786;2023-06-26T02:54:49;98731.53;;;19.66;54.94
16544;BME280;8384;47.996;7.786;2023-06-26T02:57:15;98749.22;;;19.88;54.51
16544;BME280;8384;47.996;7.786;2023-06-26T02:59:42;98742.16;;;19.82;54.81
16544;BME280;8384;47.996;7.786;2023-06-26T03:02:07;98751.47;;;19.86;54.71
16544;BME280;8384;47.996;7.786;2023-06-26T03:04:32;98756.03;;;19.82;54.91
16544;BME280;8384;47.996;7.786;2023-06-26T03:07:01;98752.50;;;19.90;54.80
16544;BME280;8384;47.996;7.786;2023-06-26T03:09:27;98745.91;;;19.68;55.25
16544;BME280;8384;47.996;7.786;2023-06-26T03:11:52;98752.47;;;19.81;55.26
16544;BME280;8384;47.996;7.786;2023-06-26T03:14:18;98759.94;;;19.72;55.53
16544;BME280;8384;47.996;7.786;2023-06-26T03:16:43;98761.41;;;19.69;55.63
16544;BME280;8384;47.996;7.786;2023-06-26T03:21:34;98762.69;;;19.72;55.74
16544;BME280;8384;47.996;7.786;2023-06-26T03:23:59;98763.53;;;19.72;55.62
16544;BME280;8384;47.996;7.786;2023-06-26T03:26:24;98757.13;;;19.63;55.87
16544;BME280;8384;47.996;7.786;2023-06-26T03:28:53;98759.06;;;19.62;56.08
16544;BME280;8384;47.996;7.786;2023-06-26T03:31:18;98765.09;;;19.56;56.17
16544;BME280;8384;47.996;7.786;2023-06-26T03:33:43;98770.50;;;19.61;56.18
16544;BME280;8384;47.996;7.786;2023-06-26T03:36:09;98770.63;;;19.56;56.49
16544;BME280;8384;47.996;7.786;2023-06-26T03:38:34;98777.16;;;19.51;57.03
16544;BME280;8384;47.996;7.786;2023-06-26T03:40:59;98760.16;;;19.44;57.13
16544;BME280;8384;47.996;7.786;2023-06-26T03:43:25;98771.47;;;19.56;57.29
16544;BME280;8384;47.996;7.786;2023-06-26T03:45:50;98759.13;;;19.31;57.51
16544;BME280;8384;47.996;7.786;2023-06-26T03:48:15;98773.72;;;19.45;58.23
16544;BME280;8384;47.996;7.786;2023-06-26T03:50:40;98778.50;;;19.22;59.16
16544;BME280;8384;47.996;7.786;2023-06-26T03:53:06;98777.91;;;19.34;58.63
16544;BME280;8384;47.996;7.786;2023-06-26T03:55:31;98760.19;;;19.12;59.73
16544;BME280;8384;47.996;7.786;2023-06-26T03:57:56;98766.75;;;19.16;59.20
16544;BME280;8384;47.996;7.786;2023-06-26T04:00:21;98780.03;;;19.37;59.20
16544;BME280;8384;47.996;7.786;2023-06-26T04:02:47;98784.25;;;19.34;58.63
16544;BME280;8384;47.996;7.786;2023-06-26T04:05:12;98792.88;;;19.33;59.64
16544;BME280;8384;47.996;7.786;2023-06-26T04:07:37;98786.59;;;19.50;58.94
16544;BME280;8384;47.996;7.786;2023-06-26T04:10:03;98791.53;;;19.62;58.26
16544;BME280;8384;47.996;7.786;2023-06-26T04:12:28;98796.94;;;19.67;57.41
16544;BME280;8384;47.996;7.786;2023-06-26T04:14:53;98762.69;;;19.63;56.92
16544;BME280;8384;47.996;7.786;2023-06-26T04:17:19;98775.94;;;19.75;56.43
16544;BME280;8384;47.996;7.786;2023-06-26T04:19:44;98788.91;;;19.97;56.43
16544;BME280;8384;47.996;7.786;2023-06-26T04:22:10;98775.84;;;19.98;55.90
16544;BME280;8384;47.996;7.786;2023-06-26T04:24:35;98791.72;;;20.15;55.66
16544;BME280;8384;47.996;7.786;2023-06-26T04:27:00;98794.00;;;20.13;56.13
16544;BME280;8384;47.996;7.786;2023-06-26T04:29:26;98777.50;;;20.07;55.92
16544;BME280;8384;47.996;7.786;2023-06-26T04:31:52;98791.06;;;20.18;55.96
16544;BME280;8384;47.996;7.786;2023-06-26T04:34:26;98761.81;;;20.03;56.32
16544;BME280;8384;47.996;7.786;2023-06-26T04:36:51;98796.63;;;20.27;56.34
16544;BME280;8384;47.996;7.786;2023-06-26T04:39:17;98789.78;;;20.24;56.44
16544;BME280;8384;47.996;7.786;2023-06-26T04:41:42;98793.84;;;20.35;56.24
16544;BME280;8384;47.996;7.786;2023-06-26T04:44:07;98785.53;;;20.35;56.24
16544;BME280;8384;47.996;7.786;2023-06-26T04:46:33;98774.06;;;20.28;56.83
16544;BME280;8384;47.996;7.786;2023-06-26T04:48:58;98792.88;;;20.58;56.01
16544;BME280;8384;47.996;7.786;2023-06-26T04:51:24;98772.13;;;20.46;56.19
16544;BME280;8384;47.996;7.786;2023-06-26T04:53:52;98802.19;;;20.71;56.10
16544;BME280;8384;47.996;7.786;2023-06-26T04:56:17;98798.28;;;20.89;55.80
16544;BME280;8384;47.996;7.786;2023-06-26T04:58:42;98795.00;;;21.05;55.41
16544;BME280;8384;47.996;7.786;2023-06-26T05:01:07;98798.38;;;21.19;55.04
16544;BME280;8384;47.996;7.786;2023-06-26T05:03:33;98792.66;;;21.16;56.18
16544;BME280;8384;47.996;7.786;2023-06-26T05:05:59;98795.00;;;21.05;57.99
16544;BME280;8384;47.996;7.786;2023-06-26T05:08:24;98797.22;;;21.20;57.66
16544;BME280;8384;47.996;7.786;2023-06-26T05:10:52;98789.09;;;21.06;61.10
16544;BME280;8384;47.996;7.786;2023-06-26T05:13:18;98802.31;;;21.18;60.60
16544;BME280;8384;47.996;7.786;2023-06-26T05:15:45;98794.59;;;21.24;59.95
16544;BME280;8384;47.996;7.786;2023-06-26T05:18:11;98803.84;;;21.46;59.33
16544;BME280;8384;47.996;7.786;2023-06-26T05:20:37;98792.06;;;21.87;58.87
16544;BME280;8384;47.996;7.786;2023-06-26T05:23:03;98808.91;;;21.91;58.16
16544;BME280;8384;47.996;7.786;2023-06-26T05:25:30;98807.78;;;21.92;58.70
16544;BME280;8384;47.996;7.786;2023-06-26T05:27:59;98811.66;;;22.00;58.13
16544;BME280;8384;47.996;7.786;2023-06-26T05:30:26;98803.38;;;22.12;58.62
16544;BME280;8384;47.996;7.786;2023-06-26T05:32:52;98816.16;;;22.35;59.46
16544;BME280;8384;47.996;7.786;2023-06-26T05:35:20;98800.13;;;22.31;61.80
16544;BME280;8384;47.996;7.786;2023-06-26T05:37:48;98797.53;;;22.56;60.63
16544;BME280;8384;47.996;7.786;2023-06-26T05:40:14;98804.91;;;22.52;59.01
16544;BME280;8384;47.996;7.786;2023-06-26T05:42:40;98811.84;;;22.67;57.39
16544;BME280;8384;47.996;7.786;2023-06-26T05:45:05;98810.06;;;22.84;54.58
16544;BME280;8384;47.996;7.786;2023-06-26T05:47:30;98819.50;;;22.91;55.79
16544;BME280;8384;47.996;7.786;2023-06-26T05:49:56;98804.22;;;22.98;55.35
16544;BME280;8384;47.996;7.786;2023-06-26T05:52:21;98798.19;;;23.08;53.35
16544;BME280;8384;47.996;7.786;2023-06-26T05:54:47;98804.81;;;23.49;51.07
16544;BME280;8384;47.996;7.786;2023-06-26T05:57:13;98806.00;;;23.73;49.89
16544;BME280;8384;47.996;7.786;2023-06-26T05:59:39;98815.41;;;23.81;49.04
16544;BME280;8384;47.996;7.786;2023-06-26T06:02:05;98803.78;;;23.79;49.28
16544;BME280;8384;47.996;7.786;2023-06-26T06:04:30;98801.22;;;23.86;50.24
16544;BME280;8384;47.996;7.786;2023-06-26T06:06:56;98802.41;;;23.98;48.66
16544;BME280;8384;47.996;7.786;2023-06-26T06:09:21;98802.50;;;24.14;48.65
16544;BME280;8384;47.996;7.786;2023-06-26T06:11:46;98801.66;;;24.38;48.43
16544;BME280;8384;47.996;7.786;2023-06-26T06:14:11;98806.31;;;24.34;48.42
16544;BME280;8384;47.996;7.786;2023-06-26T06:16:37;98808.78;;;24.35;49.57
16544;BME280;8384;47.996;7.786;2023-06-26T06:19:02;98808.41;;;24.49;48.55
16544;BME280;8384;47.996;7.786;2023-06-26T06:21:28;98796.72;;;24.60;47.94
16544;BME280;8384;47.996;7.786;2023-06-26T06:23:53;98750.44;;;24.46;46.05
16544;BME280;8384;47.996;7.786;2023-06-26T06:26:19;98798.66;;;24.71;46.73
16544;BME280;8384;47.996;7.786;2023-06-26T06:28:44;98803.78;;;24.82;46.32
16544;BME280;8384;47.996;7.786;2023-06-26T06:31:09;98809.25;;;25.07;45.20
16544;BME280;8384;47.996;7.786;2023-06-26T06:33:34;98808.94;;;24.96;44.73
16544;BME280;8384;47.996;7.786;2023-06-26T06:36:00;98809.50;;;25.01;44.96
16544;BME280;8384;47.996;7.786;2023-06-26T06:38:25;98802.09;;;25.09;44.85
16544;BME280;8384;47.996;7.786;2023-06-26T06:40:50;98806.47;;;25.23;44.42
16544;BME280;8384;47.996;7.786;2023-06-26T06:43:16;98798.63;;;25.28;44.34
16544;BME280;8384;47.996;7.786;2023-06-26T06:45:41;98803.25;;;25.37;44.64
16544;BME280;8384;47.996;7.786;2023-06-26T06:48:06;98807.97;;;25.49;43.14
16544;BME280;8384;47.996;7.786;2023-06-26T06:50:32;98804.00;;;25.50;43.11
16544;BME280;8384;47.996;7.786;2023-06-26T06:52:57;98804.47;;;25.52;43.61
16544;BME280;8384;47.996;7.786;2023-06-26T06:55:22;98816.47;;;25.52;42.77
16544;BME280;8384;47.996;7.786;2023-06-26T06:57:49;98823.50;;;25.62;42.40
16544;BME280;8384;47.996;7.786;2023-06-26T07:00:15;98810.16;;;25.71;43.47
16544;BME280;8384;47.996;7.786;2023-06-26T07:02:42;98823.31;;;25.71;42.98
16544;BME280;8384;47.996;7.786;2023-06-26T07:05:09;98823.50;;;25.46;43.44
16544;BME280;8384;47.996;7.786;2023-06-26T07:07:36;98824.22;;;25.59;43.87
16544;BME280;8384;47.996;7.786;2023-06-26T07:10:12;98820.34;;;25.64;43.55
16544;BME280;8384;47.996;7.786;2023-06-26T07:12:38;98821.88;;;25.61;43.68
16544;BME280;8384;47.996;7.786;2023-06-26T07:15:04;98824.66;;;25.61;42.73
16544;BME280;8384;47.996;7.786;2023-06-26T07:17:31;98833.44;;;25.75;42.98
16544;BME280;8384;47.996;7.786;2023-06-26T07:19:57;98836.03;;;26.00;43.30
16544;BME280;8384;47.996;7.786;2023-06-26T07:22:22;98830.97;;;26.22;42.31
16544;BME280;8384;47.996;7.786;2023-06-26T07:24:48;98834.75;;;25.98;43.22
16544;BME280;8384;47.996;7.786;2023-06-26T07:27:16;98822.41;;;26.15;42.08
16544;BME280;8384;47.996;7.786;2023-06-26T07:29:44;98822.56;;;26.06;43.00
16544;BME280;8384;47.996;7.786;2023-06-26T07:32:09;98826.53;;;26.05;42.34
16544;BME280;8384;47.996;7.786;2023-06-26T07:34:34;98814.41;;;26.33;42.01
16544;BME280;8384;47.996;7.786;2023-06-26T07:37:00;98808.63;;;26.26;41.67
16544;BME280;8384;47.996;7.786;2023-06-26T07:39:25;98823.50;;;26.65;41.97
16544;BME280;8384;47.996;7.786;2023-06-26T07:41:51;98816.72;;;26.47;42.23
16544;BME280;8384;47.996;7.786;2023-06-26T07:44:16;98821.47;;;27.02;40.92
16544;BME280;8384;47.996;7.786;2023-06-26T07:46:41;98823.91;;;26.84;42.04
16544;BME280;8384;47.996;7.786;2023-06-26T07:49:06;98821.56;;;26.86;41.58
16544;BME280;8384;47.996;7.786;2023-06-26T07:51:32;98818.94;;;27.16;40.81
16544;BME280;8384;47.996;7.786;2023-06-26T07:53:57;98828.22;;;27.40;40.38
16544;BME280;8384;47.996;7.786;2023-06-26T07:56:22;98824.00;;;27.07;41.89
16544;BME280;8384;47.996;7.786;2023-06-26T07:58:48;98831.47;;;27.22;41.60
16544;BME280;8384;47.996;7.786;2023-06-26T08:01:13;98829.94;;;27.05;42.09
16544;BME280;8384;47.996;7.786;2023-06-26T08:03:38;98813.97;;;27.29;40.79
16544;BME280;8384;47.996;7.786;2023-06-26T08:06:03;98820.44;;;26.90;41.58
16544;BME280;8384;47.996;7.786;2023-06-26T08:08:29;98824.91;;;26.75;41.89
16544;BME280;8384;47.996;7.786;2023-06-26T08:10:54;98851.81;;;26.96;41.75
16544;BME280;8384;47.996;7.786;2023-06-26T08:13:20;98830.00;;;26.70;42.23
16544;BME280;8384;47.996;7.786;2023-06-26T08:15:45;98823.22;;;26.71;41.69
16544;BME280;8384;47.996;7.786;2023-06-26T08:18:10;98816.00;;;26.89;42.31
16544;BME280;8384;47.996;7.786;2023-06-26T08:20:35;98823.44;;;27.21;42.28
16544;BME280;8384;47.996;7.786;2023-06-26T08:23:03;98830.16;;;27.36;41.77
16544;BME280;8384;47.996;7.786;2023-06-26T08:25:28;98838.81;;;26.68;43.38
16544;BME280;8384;47.996;7.786;2023-06-26T08:27:54;98828.75;;;27.26;43.10
16544;BME280;8384;47.996;7.786;2023-06-26T08:30:20;98833.19;;;27.47;41.69
16544;BME280;8384;47.996;7.786;2023-06-26T08:32:45;98833.38;;;27.58;41.68
16544;BME280;8384;47.996;7.786;2023-06-26T08:35:11;98816.75;;;27.06;42.13
16544;BME280;8384;47.996;7.786;2023-06-26T08:37:37;98834.28;;;27.22;42.36
16544;BME280;8384;47.996;7.786;2023-06-26T08:40:02;98838.41;;;27.29;42.87
16544;BME280;8384;47.996;7.786;2023-06-26T08:42:29;98841.84;;;26.99;43.60
16544;BME280;8384;47.996;7.786;2023-06-26T08:44:54;98850.72;;;26.81;43.93
16544;BME280;8384;47.996;7.786;2023-06-26T08:47:19;98842.81;;;26.87;44.28
16544;BME280;8384;47.996;7.786;2023-06-26T08:50:10;98843.16;;;27.24;43.59
16544;BME280;8384;47.996;7.786;2023-06-26T08:52:43;98852.78;;;26.84;44.24
16544;BME280;8384;47.996;7.786;2023-06-26T08:55:12;98857.28;;;26.89;43.90
16544;BME280;8384;47.996;7.786;2023-06-26T08:57:40;98844.41;;;27.07;43.39
16544;BME280;8384;47.996;7.786;2023-06-26T09:00:06;98866.63;;;27.36;42.44
16544;BME280;8384;47.996;7.786;2023-06-26T09:02:33;98850.69;;;27.40;42.75
16544;BME280;8384;47.996;7.786;2023-06-26T09:04:59;98861.38;;;27.54;41.50
16544;BME280;8384;47.996;7.786;2023-06-26T09:07:24;98864.09;;;27.50;41.91
16544;BME280;8384;47.996;7.786;2023-06-26T09:09:49;98863.56;;;27.88;41.26
16544;BME280;8384;47.996;7.786;2023-06-26T09:12:15;98850.84;;;28.21;41.32
16544;BME280;8384;47.996;7.786;2023-06-26T09:14:40;98855.09;;;28.34;41.41
16544;BME280;8384;47.996;7.786;2023-06-26T09:17:06;98874.56;;;28.20;41.20
16544;BME280;8384;47.996;7.786;2023-06-26T09:19:32;98881.97;;;27.85;41.29
16544;BME280;8384;47.996;7.786;2023-06-26T09:21:57;98875.16;;;27.43;42.92
16544;BME280;8384;47.996;7.786;2023-06-26T09:24:22;98895.00;;;27.50;42.78
16544;BME280;8384;47.996;7.786;2023-06-26T09:26:48;98907.22;;;27.42;42.54
16544;BME280;8384;47.996;7.786;2023-06-26T09:29:15;98899.47;;;27.35;43.22
16544;BME280;8384;47.996;7.786;2023-06-26T09:31:40;98911.31;;;27.25;43.41
16544;BME280;8384;47.996;7.786;2023-06-26T09:34:06;98908.19;;;27.30;43.94
16544;BME280;8384;47.996;7.786;2023-06-26T09:36:32;98907.84;;;27.51;43.15
16544;BME280;8384;47.996;7.786;2023-06-26T09:38:59;98904.88;;;27.87;42.10
16544;BME280;8384;47.996;7.786;2023-06-26T09:41:24;98883.16;;;28.31;42.44
16544;BME280;8384;47.996;7.786;2023-06-26T09:43:50;98897.72;;;28.40;41.43
16544;BME280;8384;47.996;7.786;2023-06-26T09:46:17;98886.91;;;28.69;41.32
16544;BME280;8384;47.996;7.786;2023-06-26T09:48:43;98903.31;;;28.13;41.76
16544;BME280;8384;47.996;7.786;2023-06-26T09:51:09;98910.84;;;28.82;41.26
16544;BME280;8384;47.996;7.786;2023-06-26T09:53:35;98910.44;;;28.84;40.19
16544;BME280;8384;47.996;7.786;2023-06-26T09:56:07;98911.41;;;28.95;40.29
16544;BME280;8384;47.996;7.786;2023-06-26T09:58:39;98925.13;;;29.00;38.79
16544;BME280;8384;47.996;7.786;2023-06-26T10:01:05;98904.91;;;28.91;39.09
16544;BME280;8384;47.996;7.786;2023-06-26T10:03:32;98911.25;;;29.90;38.03
16544;BME280;8384;47.996;7.786;2023-06-26T10:05:58;98920.53;;;29.19;38.45
16544;BME280;8384;47.996;7.786;2023-06-26T10:08:26;98915.13;;;29.03;39.12
16544;BME280;8384;47.996;7.786;2023-06-26T10:10:52;98918.41;;;28.28;39.47
16544;BME280;8384;47.996;7.786;2023-06-26T10:13:22;98921.97;;;28.75;39.13
16544;BME280;8384;47.996;7.786;2023-06-26T10:15:50;98920.16;;;29.21;38.32
16544;BME280;8384;47.996;7.786;2023-06-26T10:18:17;98924.50;;;29.45;38.80
16544;BME280;8384;47.996;7.786;2023-06-26T10:20:47;98925.50;;;28.72;40.45
16544;BME280;8384;47.996;7.786;2023-06-26T10:23:14;98922.28;;;28.43;40.94
16544;BME280;8384;47.996;7.786;2023-06-26T10:25:42;98912.09;;;28.35;42.20
16544;BME280;8384;47.996;7.786;2023-06-26T10:28:10;98918.63;;;28.16;41.42
16544;BME280;8384;47.996;7.786;2023-06-26T10:30:38;98927.31;;;28.57;40.47
16544;BME280;8384;47.996;7.786;2023-06-26T10:33:04;98928.94;;;28.85;39.61
16544;BME280;8384;47.996;7.786;2023-06-26T10:35:31;98938.19;;;29.16;39.72
16544;BME280;8384;47.996;7.786;2023-06-26T10:38:01;98945.44;;;29.47;38.96
16544;BME280;8384;47.996;7.786;2023-06-26T10:40:45;98940.81;;;29.32;39.01
16544;BME280;8384;47.996;7.786;2023-06-26T10:43:12;98949.78;;;29.11;39.91
16544;BME280;8384;47.996;7.786;2023-06-26T10:45:44;98948.13;;;29.37;39.80
16544;BME280;8384;47.996;7.786;2023-06-26T10:48:09;98929.34;;;28.83;41.23
16544;BME280;8384;47.996;7.786;2023-06-26T10:50:34;98936.88;;;28.25;42.47
16544;BME280;8384;47.996;7.786;2023-06-26T10:56:04;98933.28;;;28.05;43.82
16544;BME280;8384;47.996;7.786;2023-06-26T11:03:40;98919.19;;;30.75;37.47
16544;BME280;8384;47.996;7.786;2023-06-26T11:06:09;98927.00;;;29.95;38.75
16544;BME280;8384;47.996;7.786;2023-06-26T11:08:52;98921.34;;;30.40;37.59
16544;BME280;8384;47.996;7.786;2023-06-26T11:11:21;98917.19;;;30.75;37.15
16544;BME280;8384;47.996;7.786;2023-06-26T11:13:47;98924.88;;;30.26;37.71
16544;BME280;8384;47.996;7.786;2023-06-26T11:16:14;98918.44;;;30.81;37.18
16544;BME280;8384;47.996;7.786;2023-06-26T11:18:40;98930.00;;;31.39;36.04
16544;BME280;8384;47.996;7.786;2023-06-26T11:21:06;98924.81;;;31.56;35.60
16544;BME280;8384;47.996;7.786;2023-06-26T11:23:32;98916.56;;;31.07;35.81
16544;BME280;8384;47.996;7.786;2023-06-26T11:26:15;98906.22;;;30.63;36.63
16544;BME280;8384;47.996;7.786;2023-06-26T11:28:56;98911.91;;;31.55;35.96
16544;BME280;8384;47.996;7.786;2023-06-26T11:31:29;98926.94;;;31.88;34.79
16544;BME280;8384;47.996;7.786;2023-06-26T11:33:59;98918.44;;;32.46;34.91
16544;BME280;8384;47.996;7.786;2023-06-26T11:36:25;98924.09;;;32.60;33.78
16544;BME280;8384;47.996;7.786;2023-06-26T11:38:58;98935.75;;;33.02;32.89
16544;BME280;8384;47.996;7.786;2023-06-26T11:41:25;98932.63;;;32.28;33.58
16544;BME280;8384;47.996;7.786;2023-06-26T11:43:51;98931.56;;;31.30;35.79
16544;BME280;8384;47.996;7.786;2023-06-26T11:46:19;98926.31;;;31.21;36.27
16544;BME280;8384;47.996;7.786;2023-06-26T11:48:45;98915.69;;;31.00;37.03
16544;BME280;8384;47.996;7.786;2023-06-26T11:51:15;98931.78;;;30.32;38.24
16544;BME280;8384;47.996;7.786;2023-06-26T11:53:42;98931.75;;;29.87;39.40
16544;BME280;8384;47.996;7.786;2023-06-26T11:56:12;98933.00;;;29.90;39.34
16544;BME280;8384;47.996;7.786;2023-06-26T11:58:59;98918.88;;;30.31;37.91
16544;BME280;8384;47.996;7.786;2023-06-26T12:01:27;98931.94;;;31.17;36.85
16544;BME280;8384;47.996;7.786;2023-06-26T12:03:58;98927.50;;;31.20;36.57
16544;BME280;8384;47.996;7.786;2023-06-26T12:06:23;98914.06;;;30.95;36.06
16544;BME280;8384;47.996;7.786;2023-06-26T12:08:49;98917.44;;;30.56;36.38
16544;BME280;8384;47.996;7.786;2023-06-26T12:11:14;98921.34;;;30.36;36.65
16544;BME280;8384;47.996;7.786;2023-06-26T12:13:40;98910.50;;;29.93;37.37
16544;BME280;8384;47.996;7.786;2023-06-26T12:16:05;98923.50;;;29.64;38.63
16544;BME280;8384;47.996;7.786;2023-06-26T12:18:36;98915.84;;;28.96;39.72
16544;BME280;8384;47.996;7.786;2023-06-26T12:21:02;98916.91;;;28.61;40.24
16544;BME280;8384;47.996;7.786;2023-06-26T12:23:38;98921.03;;;28.67;40.16
16544;BME280;8384;47.996;7.786;2023-06-26T12:26:20;98929.72;;;29.12;38.52
16544;BME280;8384;47.996;7.786;2023-06-26T12:28:46;98918.22;;;30.00;36.48
16544;BME280;8384;47.996;7.786;2023-06-26T12:31:16;98919.84;;;30.53;34.54
16544;BME280;8384;47.996;7.786;2023-06-26T12:33:44;98926.56;;;30.90;34.07
16544;BME280;8384;47.996;7.786;2023-06-26T12:36:11;98923.47;;;30.02;36.11
16544;BME280;8384;47.996;7.786;2023-06-26T12:38:37;98924.38;;;30.13;35.85
16544;BME280;8384;47.996;7.786;2023-06-26T12:41:02;98918.66;;;30.02;36.46
16544;BME280;8384;47.996;7.786;2023-06-26T12:43:27;98925.69;;;29.82;36.41
16544;BME280;8384;47.996;7.786;2023-06-26T12:45:56;98933.72;;;29.42;37.13
16544;BME280;8384;47.996;7.786;2023-06-26T12:48:35;98922.69;;;28.99;37.73
16544;BME280;8384;47.996;7.786;2023-06-26T12:51:10;98930.97;;;28.84;37.96
16544;BME280;8384;47.996;7.786;2023-06-26T12:53:35;98918.66;;;28.69;37.52
16544;BME280;8384;47.996;7.786;2023-06-26T12:56:01;98925.06;;;28.97;37.60
16544;BME280;8384;47.996;7.786;2023-06-26T12:58:26;98910.72;;;29.06;36.71
16544;BME280;8384;47.996;7.786;2023-06-26T13:00:51;98911.63;;;29.13;36.62
16544;BME280;8384;47.996;7.786;2023-06-26T13:03:19;98931.69;;;29.12;36.85
16544;BME280;8384;47.996;7.786;2023-06-26T13:05:45;98920.31;;;28.74;37.75
16544;BME280;8384;47.996;7.786;2023-06-26T13:08:11;98873.56;;;28.35;38.34
16544;BME280;8384;47.996;7.786;2023-06-26T13:10:36;98909.97;;;29.39;37.04
16544;BME280;8384;47.996;7.786;2023-06-26T13:13:01;98909.53;;;29.75;36.23
16544;BME280;8384;47.996;7.786;2023-06-26T13:15:27;98903.78;;;29.64;33.89
16544;BME280;8384;47.996;7.786;2023-06-26T13:17:53;98902.31;;;29.40;35.01